createdAt,value
2018-03-22T00:02:02.474Z,3.60
2018-03-22T00:04:34.489Z,3.60
2018-03-22T00:07:05.761Z,3.60
2018-03-22T00:09:36.998Z,3.70
2018-03-22T00:12:08.427Z,3.60
2018-03-22T00:14:40.029Z,3.60
2018-03-22T00:17:11.257Z,3.70
2018-03-22T00:19:42.612Z,3.80
2018-03-22T00:22:24.371Z,3.70
2018-03-22T00:24:55.764Z,3.60
2018-03-22T00:27:27.194Z,3.70
2018-03-22T00:29:58.465Z,3.80
2018-03-22T00:32:29.855Z,3.80
2018-03-22T00:35:01.166Z,3.70
2018-03-22T00:37:32.518Z,3.80
2018-03-22T00:40:04.894Z,3.70
2018-03-22T00:42:36.301Z,3.70
2018-03-22T00:45:07.600Z,3.80
2018-03-22T00:47:39.473Z,3.80
2018-03-22T00:50:10.911Z,3.90
2018-03-22T00:52:42.119Z,3.90
2018-03-22T00:55:14.139Z,3.70
2018-03-22T00:57:45.518Z,3.70
2018-03-22T01:00:16.881Z,3.80
2018-03-22T01:02:48.956Z,3.80
2018-03-22T01:05:21.104Z,3.70
2018-03-22T01:07:52.587Z,3.70
2018-03-22T01:10:23.843Z,3.80
2018-03-22T01:12:55.174Z,3.70
2018-03-22T01:15:27.051Z,3.80
2018-03-22T01:17:58.336Z,3.70
2018-03-22T01:20:30.588Z,3.80
2018-03-22T01:23:02.913Z,3.70
2018-03-22T01:25:34.210Z,3.80
2018-03-22T01:28:05.522Z,3.50
2018-03-22T01:30:38.786Z,3.50
2018-03-22T01:33:10.031Z,3.70
2018-03-22T01:35:41.599Z,3.70
2018-03-22T01:38:12.766Z,3.50
2018-03-22T01:40:44.287Z,3.60
2018-03-22T01:43:15.502Z,3.50
2018-03-22T01:45:48.180Z,3.60
2018-03-22T01:48:20.227Z,3.60
2018-03-22T01:50:52.261Z,3.50
2018-03-22T01:53:23.488Z,3.50
2018-03-22T01:55:54.832Z,3.50
2018-03-22T01:58:26.071Z,3.70
2018-03-22T02:00:57.371Z,3.50
2018-03-22T02:03:28.665Z,3.50
2018-03-22T02:06:00.047Z,3.50
2018-03-22T02:08:31.486Z,3.40
2018-03-22T02:11:02.814Z,3.50
2018-03-22T02:13:41.321Z,3.50
2018-03-22T02:16:12.890Z,3.50
2018-03-22T02:18:45.036Z,3.60
2018-03-22T02:21:16.300Z,3.60
2018-03-22T02:23:47.541Z,3.50
2018-03-22T02:26:18.891Z,3.50
2018-03-22T02:28:50.296Z,3.60
2018-03-22T02:31:22.253Z,3.70
2018-03-22T02:33:54.366Z,3.70
2018-03-22T02:36:25.938Z,3.60
2018-03-22T02:38:58.707Z,3.50
2018-03-22T02:41:29.963Z,3.50
2018-03-22T02:44:01.160Z,3.40
2018-03-22T02:46:32.407Z,3.40
2018-03-22T02:49:03.701Z,3.60
2018-03-22T02:51:35.863Z,3.60
2018-03-22T02:54:07.107Z,3.50
2018-03-22T02:56:38.514Z,3.50
2018-03-22T02:59:09.778Z,3.50
2018-03-22T03:01:41.032Z,3.50
2018-03-22T03:04:12.318Z,3.60
2018-03-22T03:06:44.313Z,3.50
2018-03-22T03:09:15.912Z,3.50
2018-03-22T03:11:47.208Z,3.50
2018-03-22T03:14:18.909Z,3.60
2018-03-22T03:16:51.064Z,3.60
2018-03-22T03:19:22.388Z,3.60
2018-03-22T03:21:53.780Z,3.60
2018-03-22T03:24:25.697Z,3.60
2018-03-22T03:26:56.917Z,3.60
2018-03-22T03:29:28.795Z,3.60
2018-03-22T03:31:59.963Z,3.60
2018-03-22T03:34:31.221Z,3.70
2018-03-22T03:37:03.245Z,3.70
2018-03-22T03:39:34.595Z,3.70
2018-03-22T03:42:05.840Z,3.70
2018-03-22T03:44:37.250Z,3.60
2018-03-22T03:47:08.533Z,3.50
2018-03-22T03:49:39.981Z,3.60
2018-03-22T03:52:11.596Z,3.60
2018-03-22T03:54:42.930Z,3.60
2018-03-22T03:57:14.275Z,3.60
2018-03-22T03:59:45.453Z,3.40
2018-03-22T04:02:16.978Z,3.60
2018-03-22T04:04:48.980Z,3.50
2018-03-22T04:07:20.215Z,3.50
2018-03-22T04:09:51.499Z,3.60
2018-03-22T04:12:22.813Z,3.40
2018-03-22T04:14:54.046Z,3.40
2018-03-22T04:17:26.488Z,3.50
2018-03-22T04:19:57.748Z,3.50
2018-03-22T04:22:30.039Z,3.40
2018-03-22T04:25:01.284Z,3.40
2018-03-22T04:27:32.609Z,3.40
2018-03-22T04:30:03.868Z,3.50
2018-03-22T04:32:35.233Z,3.30
2018-03-22T04:35:06.565Z,3.40
2018-03-22T04:37:38.118Z,3.40
2018-03-22T04:40:10.185Z,3.20
2018-03-22T04:42:41.503Z,3.20
2018-03-22T04:45:12.675Z,3.30
2018-03-22T04:47:44.263Z,3.30
2018-03-22T04:50:15.663Z,3.20
2018-03-22T04:52:47.022Z,3.40
2018-03-22T04:55:18.307Z,3.30
2018-03-22T04:57:49.641Z,3.20
2018-03-22T05:00:20.962Z,3.10
2018-03-22T05:02:52.266Z,3.10
2018-03-22T05:05:24.220Z,3.10
2018-03-22T05:07:55.435Z,3.10
2018-03-22T05:10:26.623Z,3.10
2018-03-22T05:12:59.539Z,3.00
2018-03-22T05:15:31.559Z,3.00
2018-03-22T05:18:02.892Z,3.00
2018-03-22T05:20:34.154Z,3.10
2018-03-22T05:23:05.536Z,3.20
2018-03-22T05:25:36.836Z,3.20
2018-03-22T05:28:08.105Z,3.20
2018-03-22T05:30:39.475Z,3.20
2018-03-22T05:33:10.937Z,3.30
2018-03-22T05:35:42.116Z,3.30
2018-03-22T05:38:13.458Z,3.40
2018-03-22T05:40:44.780Z,3.50
2018-03-22T05:43:16.079Z,3.50
2018-03-22T05:45:48.173Z,3.50
2018-03-22T05:48:19.556Z,3.50
2018-03-22T05:50:50.839Z,3.50
2018-03-22T05:53:22.918Z,3.40
2018-03-22T05:55:54.303Z,3.30
2018-03-22T05:58:25.608Z,3.40
2018-03-22T06:00:56.943Z,3.20
2018-03-22T06:03:28.311Z,3.10
2018-03-22T06:05:59.590Z,3.10
2018-03-22T06:08:30.868Z,3.00
2018-03-22T06:11:02.982Z,2.90
2018-03-22T06:13:34.394Z,2.90
2018-03-22T06:16:05.791Z,2.70
2018-03-22T06:18:37.118Z,2.70
2018-03-22T06:21:08.403Z,2.80
2018-03-22T06:23:40.426Z,3.00
2018-03-22T06:26:11.719Z,3.00
2018-03-22T06:28:42.978Z,3.10
2018-03-22T06:31:14.364Z,3.20
2018-03-22T06:33:46.403Z,3.30
2018-03-22T06:36:17.828Z,3.30
2018-03-22T06:38:49.844Z,3.50
2018-03-22T06:41:23.334Z,3.30
2018-03-22T06:43:54.569Z,3.30
2018-03-22T06:46:25.940Z,3.30
2018-03-22T06:48:57.178Z,3.20
2018-03-22T06:51:29.371Z,3.50
2018-03-22T06:54:01.460Z,3.10
2018-03-22T06:56:33.535Z,3.20
2018-03-22T06:59:04.852Z,3.20
2018-03-22T07:01:36.091Z,3.00
2018-03-22T07:04:07.408Z,2.70
2018-03-22T07:06:38.719Z,2.60
2018-03-22T07:09:10.096Z,2.60
2018-03-22T07:11:41.461Z,2.50
2018-03-22T07:14:12.765Z,2.40
2018-03-22T07:16:44.096Z,2.10
2018-03-22T07:19:15.535Z,2.10
2018-03-22T07:21:46.825Z,2.00
2018-03-22T07:24:18.120Z,1.90
2018-03-22T07:26:50.143Z,1.90
2018-03-22T07:29:21.475Z,1.80
2018-03-22T07:31:53.590Z,1.70
2018-03-22T07:34:24.853Z,1.70
2018-03-22T07:36:56.884Z,2.00
2018-03-22T07:39:28.141Z,2.00
2018-03-22T07:41:59.484Z,1.90
2018-03-22T07:44:36.788Z,2.10
2018-03-22T07:47:08.168Z,2.00
2018-03-22T07:49:39.532Z,2.20
2018-03-22T07:52:10.816Z,2.10
2018-03-22T07:54:42.133Z,2.10
2018-03-22T07:57:13.415Z,2.00
2018-03-22T07:59:44.871Z,2.00
2018-03-22T08:02:16.215Z,2.00
2018-03-22T08:04:48.299Z,1.90
2018-03-22T08:07:20.267Z,2.00
2018-03-22T08:09:51.583Z,2.00
2018-03-22T08:12:22.911Z,1.90
2018-03-22T08:14:54.165Z,2.00
2018-03-22T08:17:25.395Z,2.10
2018-03-22T08:19:56.744Z,2.00
2018-03-22T08:22:28.042Z,2.10
2018-03-22T08:24:59.508Z,2.20
2018-03-22T08:27:30.709Z,2.10
2018-03-22T08:30:02.011Z,2.10
2018-03-22T08:32:33.377Z,2.30
2018-03-22T08:35:05.407Z,2.10
2018-03-22T08:37:36.665Z,2.10
2018-03-22T08:40:07.893Z,2.00
2018-03-22T08:42:39.163Z,2.20
2018-03-22T08:45:10.440Z,2.30
2018-03-22T08:47:42.487Z,2.00
2018-03-22T08:50:14.641Z,2.00
2018-03-22T08:52:45.942Z,2.00
2018-03-22T08:55:18.082Z,2.00
2018-03-22T08:57:49.475Z,2.00
2018-03-22T09:00:21.512Z,2.20
2018-03-22T09:02:53.707Z,2.20
2018-03-22T09:05:24.925Z,2.20
2018-03-22T09:07:57.116Z,2.10
2018-03-22T09:10:28.334Z,2.00
2018-03-22T09:12:59.683Z,2.10
2018-03-22T09:15:31.644Z,2.10
2018-03-22T09:18:02.972Z,2.20
2018-03-22T09:20:34.292Z,2.20
2018-03-22T09:23:05.640Z,2.10
2018-03-22T09:25:36.990Z,2.20
2018-03-22T09:28:08.428Z,2.30
2018-03-22T09:30:39.751Z,2.10
2018-03-22T09:33:11.178Z,2.10
2018-03-22T09:35:42.437Z,2.20
2018-03-22T09:38:13.752Z,2.10
2018-03-22T09:40:45.239Z,2.10
2018-03-22T09:43:16.519Z,2.30
2018-03-22T09:45:47.916Z,2.20
2018-03-22T09:48:19.312Z,2.20
2018-03-22T09:50:50.684Z,2.10
2018-03-22T09:53:23.563Z,2.10
2018-03-22T09:55:54.831Z,2.20
2018-03-22T09:58:26.096Z,2.20
2018-03-22T10:00:58.238Z,2.20
2018-03-22T10:03:30.958Z,2.40
2018-03-22T10:06:02.538Z,2.40
2018-03-22T10:08:34.567Z,2.30
2018-03-22T10:11:05.972Z,2.20
2018-03-22T10:13:38.230Z,2.30
2018-03-22T10:16:09.541Z,2.30
2018-03-22T10:18:40.923Z,2.30
2018-03-22T10:21:12.369Z,2.40
2018-03-22T10:23:43.692Z,2.40
2018-03-22T10:26:15.077Z,2.20
2018-03-22T10:28:46.434Z,2.30
2018-03-22T10:31:17.673Z,2.30
2018-03-22T10:33:49.028Z,2.50
2018-03-22T10:36:20.471Z,2.70
2018-03-22T10:38:51.804Z,2.60
2018-03-22T10:41:23.199Z,2.40
2018-03-22T10:43:55.423Z,2.40
2018-03-22T10:46:26.691Z,2.40
2018-03-22T10:48:58.032Z,2.30
2018-03-22T10:51:29.327Z,2.50
2018-03-22T10:54:00.876Z,2.40
2018-03-22T10:56:33.293Z,2.40
2018-03-22T10:59:04.765Z,2.60
2018-03-22T11:01:42.131Z,2.70
2018-03-22T11:04:13.857Z,2.90
2018-03-22T11:06:45.191Z,2.70
2018-03-22T11:09:16.511Z,2.60
2018-03-22T11:11:47.988Z,2.60
2018-03-22T11:14:19.346Z,2.60
2018-03-22T11:16:50.550Z,2.60
2018-03-22T11:19:22.136Z,2.60
2018-03-22T11:21:53.422Z,2.60
2018-03-22T11:24:24.633Z,2.60
2018-03-22T11:26:55.874Z,2.60
2018-03-22T11:29:27.143Z,2.40
2018-03-22T11:31:58.356Z,2.40
2018-03-22T11:34:29.679Z,2.40
2018-03-22T11:37:00.916Z,2.40
2018-03-22T11:39:32.381Z,2.40
2018-03-22T11:42:04.029Z,2.50
2018-03-22T11:44:35.276Z,2.40
2018-03-22T11:47:06.546Z,2.40
2018-03-22T11:49:37.805Z,2.50
2018-03-22T11:52:09.148Z,2.60
2018-03-22T11:54:40.482Z,2.70
2018-03-22T11:57:11.916Z,2.70
2018-03-22T11:59:43.126Z,2.70
2018-03-22T12:02:15.585Z,2.90
2018-03-22T12:04:47.573Z,3.00
2018-03-22T12:07:18.904Z,3.00
2018-03-22T12:09:50.359Z,3.30
2018-03-22T12:12:21.973Z,3.20
2018-03-22T12:14:53.381Z,3.20
2018-03-22T12:17:24.660Z,3.20
2018-03-22T12:19:55.865Z,3.30
2018-03-22T12:22:27.296Z,3.30
2018-03-22T12:24:58.655Z,3.50
2018-03-22T12:27:29.935Z,3.40
2018-03-22T12:30:01.232Z,3.30
2018-03-22T12:32:33.929Z,3.40
2018-03-22T12:35:05.336Z,3.40
2018-03-22T12:37:36.958Z,3.40
2018-03-22T12:40:08.232Z,3.40
2018-03-22T12:42:40.242Z,3.50
2018-03-22T12:45:11.492Z,3.50
2018-03-22T12:47:42.866Z,3.60
2018-03-22T12:50:15.026Z,3.70
2018-03-22T12:52:46.247Z,3.70
2018-03-22T12:55:17.527Z,3.80
2018-03-22T12:57:49.058Z,3.90
2018-03-22T13:00:20.245Z,3.80
2018-03-22T13:02:56.439Z,3.50
2018-03-22T13:05:27.668Z,3.50
2018-03-22T13:07:59.624Z,3.70
2018-03-22T13:10:31.668Z,3.60
2018-03-22T13:13:03.020Z,3.60
2018-03-22T13:15:34.661Z,3.60
2018-03-22T13:18:05.966Z,3.60
2018-03-22T13:20:37.225Z,3.60
2018-03-22T13:23:08.443Z,3.70
2018-03-22T13:25:39.636Z,3.50
2018-03-22T13:28:12.340Z,3.70
2018-03-22T13:30:43.543Z,3.70
2018-03-22T13:33:14.781Z,3.70
2018-03-22T13:35:46.145Z,3.70
2018-03-22T13:38:17.424Z,3.80
2018-03-22T13:40:49.444Z,3.80
2018-03-22T13:43:21.472Z,3.90
2018-03-22T13:45:53.510Z,3.90
2018-03-22T13:48:24.976Z,3.90
2018-03-22T13:50:56.192Z,3.90
2018-03-22T13:53:28.176Z,3.80
2018-03-22T13:56:00.200Z,3.80
2018-03-22T13:58:31.499Z,3.80
2018-03-22T14:01:02.714Z,3.80
2018-03-22T14:03:35.068Z,3.90
2018-03-22T14:06:07.045Z,3.90
2018-03-22T14:08:39.424Z,4.00
2018-03-22T14:11:10.691Z,4.00
2018-03-22T14:13:43.630Z,3.80
2018-03-22T14:16:15.794Z,3.80
2018-03-22T14:18:47.825Z,4.00
2018-03-22T14:21:19.076Z,4.00
2018-03-22T14:23:50.388Z,3.90
2018-03-22T14:26:21.671Z,4.00
2018-03-22T14:28:53.912Z,4.10
2018-03-22T14:31:25.145Z,4.00
2018-03-22T14:33:56.389Z,4.00
2018-03-22T14:36:27.648Z,4.00
2018-03-22T14:38:58.870Z,4.10
2018-03-22T14:41:30.134Z,4.30
2018-03-22T14:44:01.429Z,4.20
2018-03-22T14:46:32.674Z,4.30
2018-03-22T14:49:04.216Z,4.40
2018-03-22T14:51:35.453Z,4.40
2018-03-22T14:54:07.417Z,4.30
2018-03-22T14:56:38.803Z,4.30
2018-03-22T14:59:10.802Z,4.20
2018-03-22T15:01:42.241Z,4.20
2018-03-22T15:04:13.429Z,4.20
2018-03-22T15:06:44.949Z,4.10
2018-03-22T15:09:16.170Z,4.10
2018-03-22T15:11:47.443Z,4.20
2018-03-22T15:14:18.688Z,4.30
2018-03-22T15:16:50.043Z,4.40
2018-03-22T15:19:21.218Z,4.40
2018-03-22T15:21:53.208Z,4.50
2018-03-22T15:24:24.600Z,4.50
2018-03-22T15:26:56.164Z,4.60
2018-03-22T15:29:28.122Z,4.50
2018-03-22T15:31:59.352Z,4.50
2018-03-22T15:34:30.607Z,4.50
2018-03-22T15:37:02.097Z,4.60
2018-03-22T15:39:33.304Z,4.70
2018-03-22T15:42:04.554Z,4.50
2018-03-22T15:44:37.011Z,4.30
2018-03-22T15:47:08.258Z,4.30
2018-03-22T15:49:39.499Z,4.50
2018-03-22T15:52:10.772Z,4.50
2018-03-22T15:54:42.130Z,4.40
2018-03-22T15:57:13.454Z,4.40
2018-03-22T15:59:44.781Z,4.50
2018-03-22T16:02:16.040Z,4.50
2018-03-22T16:04:47.303Z,4.40
2018-03-22T16:07:19.313Z,4.40
2018-03-22T16:09:50.696Z,4.40
2018-03-22T16:12:22.716Z,4.40
2018-03-22T16:14:54.063Z,4.40
2018-03-22T16:17:25.333Z,4.40
2018-03-22T16:19:56.544Z,4.40
2018-03-22T16:22:27.918Z,4.40
2018-03-22T16:24:59.450Z,4.50
2018-03-22T16:27:30.707Z,4.60
2018-03-22T16:30:02.020Z,4.50
2018-03-22T16:32:33.209Z,4.70
2018-03-22T16:35:04.427Z,4.60
2018-03-22T16:37:35.705Z,4.60
2018-03-22T16:40:06.990Z,4.70
2018-03-22T16:42:38.937Z,4.70
2018-03-22T16:45:11.145Z,4.60
2018-03-22T16:47:42.353Z,4.60
2018-03-22T16:50:14.349Z,4.60
2018-03-22T16:52:45.547Z,4.60
2018-03-22T16:55:16.823Z,4.50
2018-03-22T16:57:48.132Z,4.50
2018-03-22T17:00:19.625Z,4.60
2018-03-22T17:02:51.854Z,4.80
2018-03-22T17:05:23.149Z,4.80
2018-03-22T17:07:54.438Z,4.60
2018-03-22T17:10:25.723Z,4.60
2018-03-22T17:12:57.029Z,4.80
2018-03-22T17:15:29.610Z,4.70
2018-03-22T17:18:00.941Z,4.80
2018-03-22T17:20:32.173Z,4.70
2018-03-22T17:23:03.399Z,4.70
2018-03-22T17:25:34.659Z,4.70
2018-03-22T17:28:05.971Z,4.80
2018-03-22T17:30:37.231Z,4.90
2018-03-22T17:33:08.508Z,4.90
2018-03-22T17:35:39.691Z,4.90
2018-03-22T17:38:10.980Z,4.90
2018-03-22T17:40:42.218Z,4.90
2018-03-22T17:43:13.695Z,4.80
2018-03-22T17:45:44.945Z,5.00
2018-03-22T17:48:16.176Z,4.90
2018-03-22T17:50:47.424Z,4.90
2018-03-22T17:53:18.620Z,4.90
2018-03-22T17:55:49.863Z,5.00
2018-03-22T17:58:21.131Z,5.00
2018-03-22T18:00:52.346Z,5.00
2018-03-22T18:03:24.550Z,5.10
2018-03-22T18:05:55.888Z,5.10
2018-03-22T18:08:27.092Z,5.00
2018-03-22T18:10:59.058Z,4.90
2018-03-22T18:13:31.097Z,4.80
2018-03-22T18:16:02.572Z,4.80
2018-03-22T18:18:33.867Z,4.70
2018-03-22T18:21:05.196Z,4.70
2018-03-22T18:23:36.406Z,4.80
2018-03-22T18:26:08.366Z,4.90
2018-03-22T18:28:40.368Z,5.00
2018-03-22T18:31:11.666Z,5.00
2018-03-22T18:33:43.998Z,4.90
2018-03-22T18:36:15.220Z,4.90
2018-03-22T18:38:47.285Z,5.30
2018-03-22T18:41:18.535Z,5.30
2018-03-22T18:43:49.790Z,5.70
2018-03-22T18:46:20.996Z,5.40
2018-03-22T18:48:53.009Z,5.10
2018-03-22T18:51:24.303Z,5.10
2018-03-22T18:53:56.268Z,4.90
2018-03-22T18:56:27.502Z,4.90
2018-03-22T18:58:58.781Z,5.00
2018-03-22T19:01:30.336Z,5.10
2018-03-22T19:04:01.501Z,5.10
2018-03-22T19:06:32.729Z,5.20
2018-03-22T19:09:03.992Z,5.00
2018-03-22T19:11:35.229Z,5.20
2018-03-22T19:14:06.504Z,5.20
2018-03-22T19:16:38.439Z,5.20
2018-03-22T19:19:09.675Z,5.10
2018-03-22T19:21:41.310Z,5.10
2018-03-22T19:24:13.260Z,5.00
2018-03-22T19:26:44.762Z,5.00
2018-03-22T19:29:15.933Z,5.00
2018-03-22T19:31:47.388Z,5.00
2018-03-22T19:34:18.624Z,5.10
2018-03-22T19:36:51.155Z,5.30
2018-03-22T19:39:23.135Z,5.30
2018-03-22T19:41:54.597Z,5.30
2018-03-22T19:44:26.900Z,5.30
2018-03-22T19:46:58.280Z,5.20
2018-03-22T19:49:30.367Z,5.40
2018-03-22T19:52:01.544Z,5.40
2018-03-22T19:54:32.773Z,5.30
2018-03-22T19:57:04.270Z,5.00
2018-03-22T19:59:35.533Z,4.90
2018-03-22T20:02:06.908Z,5.00
2018-03-22T20:04:38.947Z,5.00
2018-03-22T20:07:10.153Z,5.00
2018-03-22T20:09:41.575Z,5.10
2018-03-22T20:12:12.871Z,5.10
2018-03-22T20:14:44.080Z,5.20
2018-03-22T20:17:15.282Z,5.20
2018-03-22T20:19:46.662Z,5.20
2018-03-22T20:22:18.613Z,5.10
2018-03-22T20:24:50.067Z,5.10
2018-03-22T20:27:21.999Z,5.10
2018-03-22T20:29:53.251Z,5.10
2018-03-22T20:32:24.478Z,5.20
2018-03-22T20:34:55.725Z,5.40
2018-03-22T20:37:26.956Z,5.40
2018-03-22T20:39:58.233Z,5.40
2018-03-22T20:42:29.465Z,5.40
2018-03-22T20:45:00.883Z,5.30
2018-03-22T20:47:32.073Z,5.30
2018-03-22T20:50:04.102Z,5.30
2018-03-22T20:52:35.305Z,5.20
2018-03-22T20:55:06.551Z,5.40
2018-03-22T20:57:38.096Z,5.40
2018-03-22T21:00:10.125Z,5.40
2018-03-22T21:02:41.376Z,5.40
2018-03-22T21:05:13.614Z,5.50
2018-03-22T21:07:44.832Z,5.50
2018-03-22T21:10:16.064Z,5.40
2018-03-22T21:12:48.028Z,5.30
2018-03-22T21:15:19.970Z,5.30
2018-03-22T21:17:51.933Z,5.20
2018-03-22T21:20:23.258Z,5.20
2018-03-22T21:22:54.461Z,5.20
2018-03-22T21:25:25.697Z,5.30
2018-03-22T21:27:56.965Z,5.20
2018-03-22T21:30:28.220Z,5.10
2018-03-22T21:32:59.482Z,5.30
2018-03-22T21:35:30.663Z,5.30
2018-03-22T21:38:02.136Z,5.30
2018-03-22T21:40:33.373Z,5.20
2018-03-22T21:43:04.633Z,5.10
2018-03-22T21:45:35.880Z,5.10
2018-03-22T21:48:07.089Z,5.20
2018-03-22T21:50:47.328Z,5.20
2018-03-22T21:53:19.284Z,5.30
2018-03-22T21:55:51.273Z,5.20
2018-03-22T21:58:22.490Z,5.20
2018-03-22T22:00:53.822Z,5.20
2018-03-22T22:03:25.045Z,5.30
2018-03-22T22:05:57.794Z,5.20
2018-03-22T22:08:28.985Z,5.30
2018-03-22T22:11:00.217Z,5.20
2018-03-22T22:13:31.549Z,5.20
2018-03-22T22:16:02.780Z,5.30
2018-03-22T22:18:33.969Z,5.30
2018-03-22T22:21:05.343Z,5.30
2018-03-22T22:23:37.319Z,5.30
2018-03-22T22:26:08.638Z,5.30
2018-03-22T22:28:40.598Z,5.40
2018-03-22T22:31:12.566Z,5.50
2018-03-22T22:33:44.522Z,5.40
2018-03-22T22:36:16.610Z,5.50
2018-03-22T22:38:48.574Z,5.50
2018-03-22T22:41:19.923Z,5.50
2018-03-22T22:43:51.911Z,5.30
2018-03-22T22:46:23.111Z,5.30
2018-03-22T22:48:55.122Z,5.60
2018-03-22T22:51:26.341Z,5.60
2018-03-22T22:53:57.593Z,5.50
2018-03-22T22:56:28.857Z,5.50
2018-03-22T22:59:00.404Z,5.60
2018-03-22T23:01:31.624Z,5.40
2018-03-22T23:04:02.923Z,5.40
2018-03-22T23:06:34.122Z,5.40
2018-03-22T23:09:05.295Z,5.30
2018-03-22T23:11:36.637Z,5.20
2018-03-22T23:14:07.866Z,5.30
2018-03-22T23:16:39.055Z,5.30
2018-03-22T23:19:11.369Z,5.30
2018-03-22T23:21:42.700Z,5.30
2018-03-22T23:24:13.943Z,5.30
2018-03-22T23:26:45.175Z,5.40
2018-03-22T23:29:17.112Z,5.40
2018-03-22T23:31:49.102Z,5.30
2018-03-22T23:34:21.025Z,5.30
2018-03-22T23:36:52.251Z,5.30
2018-03-22T23:39:23.437Z,5.40
2018-03-22T23:41:55.724Z,5.30
2018-03-22T23:44:26.929Z,5.30
2018-03-22T23:46:58.159Z,5.20
2018-03-22T23:49:29.437Z,5.20
2018-03-22T23:52:01.406Z,5.30
2018-03-22T23:54:33.330Z,5.20
2018-03-22T23:57:04.511Z,5.20
2018-03-22T23:59:35.796Z,5.10
